Pineville, MO

9:26 AM CDT on September 17, 2014 (GMT -0500)
Grove Municipal | Change Station
CLOSE
Current Station
Airport
Location: Grove,
Elevation: 833 ft
Nearby Weather Stations

Elev 833 ft 36.60 °N, 94.74 °W | Updated 11 minutes ago

Mostly Cloudy
Mostly Cloudy
73 °F
Feels Like 73 °F
N
8
Wind Variable Wind from South

Today
High -- | Low -- °F
--% Chance of Precip.
Yesterday
High -- | Low -- °F
Precip. -- in
7:01 AM 7:21 PM
Waning Crescent, 35% visible
Pressure 29.97 in
Visibility 10.0 miles
Clouds Clear
Dew Point 73 °F
Humidity 100%
Rainfall 0.00 in
Snow Depth Not available.
UV 2 out of 12
Pollen 6.20 out of 12
Air Quality Not available.
Flu Activity Not available.
METAR KGMJ 171415Z AUTO 19007KT 10SM CLR 23/23 A2997 RMK AO2 LTG DSNT E

More Conditions Fewer Conditions

Pressure 29.97 in
Visibility 10.0 miles
Clouds Clear
Dew Point 73 °F
Humidity 100%
Rainfall 0.00 in
Snow Depth Not available.
UV 2 out of 12
Pollen 6.20 out of 12
Air Quality Not available.
Flu Activity Not available.
METAR KGMJ 171415Z AUTO 19007KT 10SM CLR 23/23 A2997 RMK AO2 LTG DSNT E

More Conditions Fewer Conditions

10-Day Weather Forecast

Almanac

Astronomy

Sep. 17, 2014 Rise Set
Actual Time 7:01 AM CDT 7:21 PM CDT
Civil Twilight 6:35 AM CDT 7:47 PM CDT
Nautical Twilight 6:05 AM CDT 8:17 PM CDT
Astronomical Twilight 5:34 AM CDT 8:48 PM CDT
Moon 1:08 AM CDT 3:25 PM CDT
Length of Visible Light 13h 12m
Length of Day
12h 20m
Tomorrow will be 2m 17s shorter.
Waning Crescent, 35% of the Moon is Illuminated
Today
Waning Crescent
Sep 24
New
Oct 1
First Quarter
Oct 8
Full
Oct 15
Last Quarter

Today's Extremes

State Highs State Lows

Community

WunderPhotos

Upload Photos

1,754,049 photos uploaded!

WunderBlogs® & News

By Dr. Jeff Masters
Director of Meteorology, Weather Underground
By Kari Strenfel
Meteorologist, Weather Underground
By Christopher C. Burt
Weather Historian, Weather Underground
September 17, 2014
September 17, 2014
September 17, 2014

Nearby

Snow Depth

Station Depth Elevation
No new snow has been reported.

Earthquake Activity

City Distance Mag. Time & Date
No recent earthquake activity has been reported nearby.
Minimum magnitude displayed is 2.5.

Coastal Water Temperatures

Place Temperature
No Stations Reporting

Nearby Weather Stations